ACA407 CYUL-CYYZ
Flight info
| Callsign | ACA407 |
|---|---|
| Flight time | 0h 55m |
| Altitude | 32000 |
| Route | BOBKI DCT MELTI DCT TORNI RAGID6 |
| Aircraft | A320/M-SDE3FGHIRWY/LB1 |
Departure
| Time | 2026-05-05 20:12 |
|---|---|
| Airport | Montreal / Pierre Elliott Trudeau International Airport (CYUL) |
Arrival
| Time | 2026-05-05 21:08 |
|---|---|
| Airport | Toronto Pearson International Airport (CYYZ) |
| Time | Latitude | Longitude | Altitude | Speed | Heading |
|---|---|---|---|---|---|
| 2026-05-05 20:01 | 45.45888 | -73.74742 | 105 ft | 0 kts | 197° |
| 2026-05-05 20:04 | 45.45887 | -73.74742 | 105 ft | 1 kts | 193° |
| 2026-05-05 20:04 | 45.45889 | -73.74727 | 104 ft | 4 kts | 53° |
| 2026-05-05 20:04 | 45.45942 | -73.74669 | 105 ft | 14 kts | 66° |
| 2026-05-05 20:05 | 45.45966 | -73.74542 | 104 ft | 13 kts | 76° |
| 2026-05-05 20:05 | 45.45994 | -73.74430 | 104 ft | 12 kts | 65° |
| 2026-05-05 20:05 | 45.45969 | -73.74322 | 103 ft | 12 kts | 105° |
| 2026-05-05 20:05 | 45.46015 | -73.74219 | 102 ft | 14 kts | 43° |
| 2026-05-05 20:06 | 45.46094 | -73.74116 | 103 ft | 16 kts | 40° |
| 2026-05-05 20:06 | 45.46172 | -73.74014 | 105 ft | 15 kts | 44° |
| 2026-05-05 20:06 | 45.46254 | -73.73907 | 105 ft | 17 kts | 42° |
| 2026-05-05 20:06 | 45.46338 | -73.73798 | 106 ft | 15 kts | 43° |
| 2026-05-05 20:07 | 45.46409 | -73.73700 | 107 ft | 14 kts | 41° |
| 2026-05-05 20:07 | 45.46498 | -73.73587 | 109 ft | 22 kts | 43° |
| 2026-05-05 20:07 | 45.46610 | -73.73439 | 110 ft | 21 kts | 43° |
| 2026-05-05 20:07 | 45.46710 | -73.73308 | 112 ft | 18 kts | 43° |
| 2026-05-05 20:08 | 45.46795 | -73.73197 | 112 ft | 15 kts | 43° |
| 2026-05-05 20:08 | 45.46867 | -73.73103 | 113 ft | 13 kts | 42° |
| 2026-05-05 20:08 | 45.46930 | -73.73021 | 115 ft | 12 kts | 43° |
| 2026-05-05 20:08 | 45.47010 | -73.72915 | 117 ft | 19 kts | 43° |
| 2026-05-05 20:09 | 45.47107 | -73.72788 | 115 ft | 18 kts | 43° |
| 2026-05-05 20:09 | 45.47192 | -73.72675 | 114 ft | 16 kts | 43° |
| 2026-05-05 20:09 | 45.47273 | -73.72569 | 116 ft | 18 kts | 42° |
| 2026-05-05 20:09 | 45.47386 | -73.72422 | 118 ft | 26 kts | 43° |
| 2026-05-05 20:10 | 45.47512 | -73.72254 | 118 ft | 23 kts | 44° |
| 2026-05-05 20:10 | 45.47627 | -73.72105 | 120 ft | 22 kts | 41° |
| 2026-05-05 20:10 | 45.47733 | -73.71968 | 122 ft | 19 kts | 43° |
| 2026-05-05 20:10 | 45.47826 | -73.71848 | 120 ft | 17 kts | 41° |
| 2026-05-05 20:11 | 45.47863 | -73.71720 | 118 ft | 14 kts | 118° |
| 2026-05-05 20:11 | 45.47806 | -73.71620 | 123 ft | 12 kts | 131° |
| 2026-05-05 20:11 | 45.47755 | -73.71558 | 123 ft | 8 kts | 162° |
| 2026-05-05 20:11 | 45.47697 | -73.71609 | 124 ft | 11 kts | 223° |
| 2026-05-05 20:12 | 45.47610 | -73.71725 | 125 ft | 38 kts | 223° |
| 2026-05-05 20:12 | 45.47249 | -73.72202 | 117 ft | 101 kts | 223° |
| 2026-05-05 20:12 | 45.46599 | -73.73051 | 123 ft | 150 kts | 223° |
| 2026-05-05 20:12 | 45.45836 | -73.74061 | 720 ft | 149 kts | 226° |
| 2026-05-05 20:13 | 45.45088 | -73.75075 | 1393 ft | 147 kts | 224° |
| 2026-05-05 20:13 | 45.44362 | -73.76069 | 2089 ft | 142 kts | 229° |
| 2026-05-05 20:13 | 45.43904 | -73.77364 | 2500 ft | 160 kts | 259° |
| 2026-05-05 20:13 | 45.43837 | -73.79032 | 2877 ft | 179 kts | 263° |
| 2026-05-05 20:14 | 45.43785 | -73.80925 | 3174 ft | 203 kts | 264° |
| 2026-05-05 20:14 | 45.43728 | -73.83044 | 3559 ft | 225 kts | 265° |
| 2026-05-05 20:14 | 45.43664 | -73.85316 | 4303 ft | 232 kts | 265° |
| 2026-05-05 20:14 | 45.43599 | -73.87616 | 5173 ft | 234 kts | 265° |
| 2026-05-05 20:15 | 45.43532 | -73.89921 | 6094 ft | 233 kts | 264° |
| 2026-05-05 20:15 | 45.43461 | -73.92233 | 6929 ft | 234 kts | 264° |
| 2026-05-05 20:15 | 45.43388 | -73.94560 | 7724 ft | 237 kts | 264° |
| 2026-05-05 20:15 | 45.43312 | -73.96912 | 8515 ft | 239 kts | 263° |
| 2026-05-05 20:16 | 45.43233 | -73.99291 | 9310 ft | 242 kts | 263° |
| 2026-05-05 20:16 | 45.43151 | -74.01702 | 10046 ft | 245 kts | 263° |
| 2026-05-05 20:16 | 45.43061 | -74.04191 | 10452 ft | 262 kts | 263° |
| 2026-05-05 20:16 | 45.42959 | -74.06899 | 10617 ft | 285 kts | 263° |
| 2026-05-05 20:17 | 45.42850 | -74.09824 | 10813 ft | 306 kts | 263° |
| 2026-05-05 20:17 | 45.42741 | -74.12901 | 11309 ft | 314 kts | 263° |
| 2026-05-05 20:17 | 45.42635 | -74.16031 | 11954 ft | 318 kts | 263° |
| 2026-05-05 20:17 | 45.42529 | -74.19197 | 12624 ft | 322 kts | 263° |
| 2026-05-05 20:18 | 45.42423 | -74.22343 | 13283 ft | 325 kts | 263° |
| 2026-05-05 20:18 | 45.42311 | -74.25567 | 13881 ft | 328 kts | 263° |
| 2026-05-05 20:18 | 45.42197 | -74.28821 | 14471 ft | 331 kts | 263° |
| 2026-05-05 20:18 | 45.42078 | -74.32104 | 15083 ft | 333 kts | 262° |
| 2026-05-05 20:19 | 45.41953 | -74.35407 | 15684 ft | 336 kts | 262° |
| 2026-05-05 20:19 | 45.41824 | -74.38738 | 16311 ft | 339 kts | 262° |
| 2026-05-05 20:19 | 45.41686 | -74.42096 | 16907 ft | 340 kts | 260° |
| 2026-05-05 20:19 | 45.41260 | -74.45403 | 17485 ft | 340 kts | 253° |
| 2026-05-05 20:20 | 45.40714 | -74.48683 | 18040 ft | 343 kts | 253° |
| 2026-05-05 20:20 | 45.40162 | -74.51998 | 18546 ft | 345 kts | 253° |
| 2026-05-05 20:20 | 45.39604 | -74.55331 | 19067 ft | 348 kts | 253° |
| 2026-05-05 20:20 | 45.39039 | -74.58689 | 19593 ft | 350 kts | 253° |
| 2026-05-05 20:21 | 45.38469 | -74.62066 | 20077 ft | 352 kts | 253° |
| 2026-05-05 20:21 | 45.37895 | -74.65469 | 20555 ft | 355 kts | 253° |
| 2026-05-05 20:21 | 45.37317 | -74.68889 | 21014 ft | 357 kts | 252° |
| 2026-05-05 20:21 | 45.36736 | -74.72335 | 21456 ft | 360 kts | 253° |
| 2026-05-05 20:22 | 45.36152 | -74.75803 | 21973 ft | 361 kts | 252° |
| 2026-05-05 20:22 | 45.35565 | -74.79276 | 22439 ft | 362 kts | 252° |
| 2026-05-05 20:22 | 45.34973 | -74.82764 | 22841 ft | 364 kts | 252° |
| 2026-05-05 20:22 | 45.34376 | -74.86280 | 23202 ft | 368 kts | 252° |
| 2026-05-05 20:23 | 45.33773 | -74.89822 | 23531 ft | 370 kts | 252° |
| 2026-05-05 20:23 | 45.33166 | -74.93377 | 23875 ft | 371 kts | 252° |
| 2026-05-05 20:23 | 45.32555 | -74.96944 | 24224 ft | 372 kts | 253° |
| 2026-05-05 20:23 | 45.31939 | -75.00518 | 24570 ft | 373 kts | 253° |
| 2026-05-05 20:24 | 45.31317 | -75.04101 | 24917 ft | 374 kts | 253° |
| 2026-05-05 20:24 | 45.30692 | -75.07695 | 25248 ft | 375 kts | 253° |
| 2026-05-05 20:24 | 45.30074 | -75.11244 | 25577 ft | 376 kts | 253° |
| 2026-05-05 20:24 | 45.29448 | -75.14854 | 25900 ft | 377 kts | 254° |
| 2026-05-05 20:25 | 45.28813 | -75.18521 | 26270 ft | 378 kts | 254° |
| 2026-05-05 20:25 | 45.28192 | -75.22091 | 26624 ft | 377 kts | 254° |
| 2026-05-05 20:25 | 45.27559 | -75.25708 | 26931 ft | 378 kts | 254° |
| 2026-05-05 20:25 | 45.26922 | -75.29332 | 27218 ft | 379 kts | 254° |
| 2026-05-05 20:26 | 45.26276 | -75.33006 | 27501 ft | 379 kts | 254° |
| 2026-05-05 20:26 | 45.25643 | -75.36595 | 27769 ft | 380 kts | 254° |
| 2026-05-05 20:26 | 45.25000 | -75.40239 | 28018 ft | 381 kts | 255° |
| 2026-05-05 20:26 | 45.24347 | -75.43942 | 28269 ft | 382 kts | 255° |
| 2026-05-05 20:27 | 45.23714 | -75.47538 | 28566 ft | 380 kts | 255° |
| 2026-05-05 20:27 | 45.23071 | -75.51172 | 28894 ft | 379 kts | 255° |
| 2026-05-05 20:27 | 45.22431 | -75.54790 | 29232 ft | 378 kts | 255° |
| 2026-05-05 20:27 | 45.21790 | -75.58394 | 29583 ft | 376 kts | 256° |
| 2026-05-05 20:28 | 45.21150 | -75.61985 | 29941 ft | 374 kts | 255° |
| 2026-05-05 20:28 | 45.20515 | -75.65540 | 30314 ft | 370 kts | 255° |
| 2026-05-05 20:28 | 45.19886 | -75.69055 | 30654 ft | 367 kts | 255° |
| 2026-05-05 20:28 | 45.19257 | -75.72554 | 30958 ft | 365 kts | 256° |
| 2026-05-05 20:29 | 45.18631 | -75.76033 | 31249 ft | 364 kts | 256° |
| 2026-05-05 20:29 | 45.18010 | -75.79500 | 31535 ft | 362 kts | 256° |
| 2026-05-05 20:29 | 45.17388 | -75.82965 | 31641 ft | 362 kts | 256° |
| 2026-05-05 20:30 | 45.16138 | -75.89876 | 31669 ft | 362 kts | 256° |
| 2026-05-05 20:30 | 45.14880 | -75.96781 | 31679 ft | 362 kts | 256° |
| 2026-05-05 20:31 | 45.13625 | -76.03684 | 31683 ft | 362 kts | 256° |
| 2026-05-05 20:31 | 45.12363 | -76.10574 | 31680 ft | 361 kts | 255° |
| 2026-05-05 20:32 | 45.11096 | -76.17448 | 31655 ft | 361 kts | 256° |
| 2026-05-05 20:32 | 45.09593 | -76.24236 | 31666 ft | 363 kts | 246° |
| 2026-05-05 20:33 | 45.07146 | -76.30509 | 31665 ft | 365 kts | 244° |
| 2026-05-05 20:33 | 45.04674 | -76.36779 | 31668 ft | 365 kts | 244° |
| 2026-05-05 20:34 | 45.02203 | -76.43049 | 31682 ft | 365 kts | 244° |
| 2026-05-05 20:34 | 44.99725 | -76.49316 | 31683 ft | 365 kts | 244° |
| 2026-05-05 20:35 | 44.97244 | -76.55566 | 31689 ft | 365 kts | 244° |
| 2026-05-05 20:35 | 44.94770 | -76.61769 | 31694 ft | 365 kts | 244° |
| 2026-05-05 20:36 | 44.92283 | -76.68004 | 31696 ft | 365 kts | 244° |
| 2026-05-05 20:36 | 44.89795 | -76.74239 | 31697 ft | 365 kts | 244° |
| 2026-05-05 20:37 | 44.87304 | -76.80466 | 31707 ft | 365 kts | 244° |
| 2026-05-05 20:37 | 44.84793 | -76.86726 | 31709 ft | 365 kts | 243° |
| 2026-05-05 20:38 | 44.82290 | -76.92937 | 31673 ft | 365 kts | 244° |
| 2026-05-05 20:38 | 44.79802 | -76.99118 | 31683 ft | 365 kts | 244° |
| 2026-05-05 20:39 | 44.77292 | -77.05336 | 31722 ft | 365 kts | 244° |
| 2026-05-05 20:39 | 44.74786 | -77.11539 | 31724 ft | 365 kts | 244° |
| 2026-05-05 20:40 | 44.72276 | -77.17733 | 31722 ft | 364 kts | 243° |
| 2026-05-05 20:40 | 44.69763 | -77.23915 | 31731 ft | 364 kts | 243° |
| 2026-05-05 20:41 | 44.67242 | -77.30092 | 31712 ft | 364 kts | 244° |
| 2026-05-05 20:41 | 44.64721 | -77.36260 | 31715 ft | 365 kts | 244° |
| 2026-05-05 20:42 | 44.62197 | -77.42439 | 31722 ft | 365 kts | 244° |
| 2026-05-05 20:42 | 44.59669 | -77.48608 | 31747 ft | 365 kts | 243° |
| 2026-05-05 20:43 | 44.57140 | -77.54769 | 31750 ft | 364 kts | 243° |
| 2026-05-05 20:43 | 44.54610 | -77.60912 | 31755 ft | 364 kts | 243° |
| 2026-05-05 20:44 | 44.52082 | -77.67051 | 31728 ft | 364 kts | 244° |
| 2026-05-05 20:44 | 44.49547 | -77.73186 | 31732 ft | 364 kts | 244° |
| 2026-05-05 20:45 | 44.45728 | -77.82391 | 31759 ft | 364 kts | 243° |
| 2026-05-05 20:45 | 44.43174 | -77.88509 | 31763 ft | 364 kts | 243° |
| 2026-05-05 20:46 | 44.40622 | -77.94622 | 31806 ft | 364 kts | 243° |
| 2026-05-05 20:46 | 44.38512 | -77.99686 | 31430 ft | 359 kts | 243° |
| 2026-05-05 20:47 | 44.36821 | -78.03721 | 29308 ft | 363 kts | 242° |
| 2026-05-05 20:47 | 44.35974 | -78.05743 | 28095 ft | 366 kts | 242° |
| 2026-05-05 20:47 | 44.34684 | -78.08827 | 26382 ft | 369 kts | 242° |
| 2026-05-05 20:47 | 44.33382 | -78.11934 | 24766 ft | 371 kts | 241° |
| 2026-05-05 20:48 | 44.31646 | -78.16064 | 22598 ft | 374 kts | 240° |
| 2026-05-05 20:48 | 44.30325 | -78.19204 | 21298 ft | 376 kts | 240° |
| 2026-05-05 20:48 | 44.29019 | -78.22300 | 20928 ft | 364 kts | 240° |
| 2026-05-05 20:48 | 44.28156 | -78.24341 | 20524 ft | 360 kts | 240° |
| 2026-05-05 20:49 | 44.26891 | -78.27333 | 19909 ft | 355 kts | 240° |
| 2026-05-05 20:49 | 44.25643 | -78.30278 | 19328 ft | 351 kts | 240° |
| 2026-05-05 20:49 | 44.24409 | -78.33186 | 18751 ft | 347 kts | 240° |
| 2026-05-05 20:49 | 44.23187 | -78.36062 | 18212 ft | 342 kts | 241° |
| 2026-05-05 20:50 | 44.21986 | -78.38884 | 17806 ft | 334 kts | 240° |
| 2026-05-05 20:50 | 44.20812 | -78.41647 | 17308 ft | 329 kts | 240° |
| 2026-05-05 20:50 | 44.19654 | -78.44380 | 16808 ft | 325 kts | 240° |
| 2026-05-05 20:50 | 44.18512 | -78.47068 | 16329 ft | 320 kts | 240° |
| 2026-05-05 20:51 | 44.17383 | -78.49721 | 15844 ft | 316 kts | 240° |
| 2026-05-05 20:51 | 44.16267 | -78.52344 | 15354 ft | 313 kts | 240° |
| 2026-05-05 20:51 | 44.15162 | -78.54933 | 14861 ft | 310 kts | 240° |
| 2026-05-05 20:51 | 44.14062 | -78.57506 | 14350 ft | 308 kts | 240° |
| 2026-05-05 20:52 | 44.12970 | -78.60059 | 13838 ft | 306 kts | 240° |
| 2026-05-05 20:52 | 44.11882 | -78.62599 | 13256 ft | 305 kts | 239° |
| 2026-05-05 20:52 | 44.10803 | -78.65123 | 12701 ft | 302 kts | 239° |
| 2026-05-05 20:52 | 44.09745 | -78.67598 | 12157 ft | 300 kts | 239° |
| 2026-05-05 20:53 | 44.08682 | -78.70080 | 11599 ft | 298 kts | 239° |
| 2026-05-05 20:53 | 44.07611 | -78.72577 | 11029 ft | 296 kts | 239° |
| 2026-05-05 20:53 | 44.06578 | -78.74978 | 10844 ft | 282 kts | 239° |
| 2026-05-05 20:53 | 44.05610 | -78.77226 | 10708 ft | 259 kts | 239° |
| 2026-05-05 20:54 | 44.04729 | -78.79266 | 10555 ft | 243 kts | 239° |
| 2026-05-05 20:54 | 44.03758 | -78.81177 | 10329 ft | 237 kts | 231° |
| 2026-05-05 20:54 | 44.02661 | -78.82824 | 10080 ft | 233 kts | 230° |
| 2026-05-05 20:54 | 44.01566 | -78.84463 | 9904 ft | 230 kts | 230° |
| 2026-05-05 20:55 | 44.00477 | -78.86094 | 9781 ft | 230 kts | 230° |
| 2026-05-05 20:55 | 43.99389 | -78.87721 | 9658 ft | 230 kts | 230° |
| 2026-05-05 20:55 | 43.98304 | -78.89343 | 9525 ft | 230 kts | 230° |
| 2026-05-05 20:55 | 43.97217 | -78.90968 | 9393 ft | 230 kts | 230° |
| 2026-05-05 20:56 | 43.96129 | -78.92597 | 9262 ft | 230 kts | 230° |
| 2026-05-05 20:56 | 43.95044 | -78.94223 | 9123 ft | 230 kts | 230° |
| 2026-05-05 20:56 | 43.93952 | -78.95863 | 8668 ft | 232 kts | 230° |
| 2026-05-05 20:56 | 43.92853 | -78.97511 | 8176 ft | 234 kts | 230° |
| 2026-05-05 20:57 | 43.91742 | -78.99174 | 7728 ft | 235 kts | 230° |
| 2026-05-05 20:57 | 43.90630 | -79.00837 | 7263 ft | 236 kts | 230° |
| 2026-05-05 20:57 | 43.89538 | -79.02461 | 7131 ft | 224 kts | 230° |
| 2026-05-05 20:57 | 43.88500 | -79.04002 | 7000 ft | 213 kts | 230° |
| 2026-05-05 20:58 | 43.87633 | -79.05568 | 6953 ft | 197 kts | 244° |
| 2026-05-05 20:58 | 43.87240 | -79.07375 | 6971 ft | 198 kts | 262° |
| 2026-05-05 20:58 | 43.87337 | -79.09289 | 6781 ft | 201 kts | 275° |
| 2026-05-05 20:58 | 43.87584 | -79.11193 | 6604 ft | 201 kts | 275° |
| 2026-05-05 20:59 | 43.87828 | -79.13099 | 6440 ft | 201 kts | 275° |
| 2026-05-05 20:59 | 43.88071 | -79.15001 | 6270 ft | 201 kts | 275° |
| 2026-05-05 20:59 | 43.88312 | -79.16904 | 6102 ft | 200 kts | 275° |
| 2026-05-05 20:59 | 43.88551 | -79.18810 | 5931 ft | 201 kts | 275° |
| 2026-05-05 21:00 | 43.88790 | -79.20725 | 5763 ft | 201 kts | 276° |
| 2026-05-05 21:00 | 43.89029 | -79.22641 | 5598 ft | 202 kts | 276° |
| 2026-05-05 21:00 | 43.89271 | -79.24563 | 5440 ft | 203 kts | 276° |
| 2026-05-05 21:00 | 43.89515 | -79.26498 | 5267 ft | 204 kts | 276° |
| 2026-05-05 21:01 | 43.89759 | -79.28438 | 5101 ft | 205 kts | 277° |
| 2026-05-05 21:01 | 43.90004 | -79.30394 | 4927 ft | 206 kts | 277° |
| 2026-05-05 21:01 | 43.90040 | -79.32364 | 4759 ft | 205 kts | 258° |
| 2026-05-05 21:01 | 43.89450 | -79.34197 | 4590 ft | 216 kts | 234° |
| 2026-05-05 21:02 | 43.88431 | -79.35731 | 4378 ft | 214 kts | 230° |
| 2026-05-05 21:02 | 43.87388 | -79.37248 | 4223 ft | 218 kts | 230° |
| 2026-05-05 21:02 | 43.86350 | -79.38766 | 4055 ft | 219 kts | 230° |
| 2026-05-05 21:02 | 43.85324 | -79.40267 | 4000 ft | 207 kts | 230° |
| 2026-05-05 21:03 | 43.84368 | -79.41667 | 4000 ft | 194 kts | 230° |
| 2026-05-05 21:03 | 43.83460 | -79.42997 | 4006 ft | 187 kts | 231° |
| 2026-05-05 21:03 | 43.82571 | -79.44302 | 4016 ft | 186 kts | 231° |
| 2026-05-05 21:03 | 43.81684 | -79.45601 | 4015 ft | 186 kts | 231° |
| 2026-05-05 21:04 | 43.80803 | -79.46889 | 3875 ft | 182 kts | 231° |
| 2026-05-05 21:04 | 43.79939 | -79.48153 | 3658 ft | 180 kts | 231° |
| 2026-05-05 21:04 | 43.79088 | -79.49396 | 3467 ft | 175 kts | 231° |
| 2026-05-05 21:04 | 43.78258 | -79.50609 | 3209 ft | 172 kts | 230° |
| 2026-05-05 21:05 | 43.77446 | -79.51794 | 2973 ft | 168 kts | 231° |
| 2026-05-05 21:05 | 43.76667 | -79.52931 | 2728 ft | 157 kts | 230° |
| 2026-05-05 21:05 | 43.75954 | -79.53970 | 2549 ft | 142 kts | 232° |
| 2026-05-05 21:05 | 43.75279 | -79.54956 | 2344 ft | 142 kts | 230° |
| 2026-05-05 21:06 | 43.74602 | -79.55943 | 2156 ft | 141 kts | 233° |
| 2026-05-05 21:06 | 43.73921 | -79.56937 | 1969 ft | 142 kts | 233° |
| 2026-05-05 21:06 | 43.73242 | -79.57928 | 1763 ft | 144 kts | 232° |
| 2026-05-05 21:06 | 43.72555 | -79.58928 | 1576 ft | 142 kts | 233° |
| 2026-05-05 21:07 | 43.71871 | -79.59928 | 1353 ft | 142 kts | 234° |
| 2026-05-05 21:07 | 43.71188 | -79.60921 | 1137 ft | 144 kts | 231° |
| 2026-05-05 21:07 | 43.70509 | -79.61915 | 948 ft | 141 kts | 230° |
| 2026-05-05 21:07 | 43.69830 | -79.62898 | 755 ft | 142 kts | 230° |
| 2026-05-05 21:08 | 43.69157 | -79.63873 | 575 ft | 136 kts | 231° |
| 2026-05-05 21:08 | 43.68623 | -79.64665 | 564 ft | 86 kts | 226° |
| 2026-05-05 21:08 | 43.68361 | -79.65018 | 568 ft | 30 kts | 208° |
| 2026-05-05 21:08 | 43.68193 | -79.65101 | 565 ft | 18 kts | 196° |
| 2026-05-05 21:09 | 43.68099 | -79.65046 | 570 ft | 15 kts | 102° |
| 2026-05-05 21:09 | 43.68143 | -79.64945 | 570 ft | 11 kts | 45° |
| 2026-05-05 21:09 | 43.68200 | -79.64863 | 570 ft | 14 kts | 46° |
| 2026-05-05 21:09 | 43.68266 | -79.64768 | 573 ft | 17 kts | 46° |
| 2026-05-05 21:10 | 43.68348 | -79.64652 | 572 ft | 23 kts | 46° |
| 2026-05-05 21:10 | 43.68464 | -79.64480 | 570 ft | 25 kts | 46° |
| 2026-05-05 21:10 | 43.68593 | -79.64299 | 565 ft | 27 kts | 45° |
| 2026-05-05 21:10 | 43.68721 | -79.64110 | 572 ft | 27 kts | 46° |
| 2026-05-05 21:11 | 43.68841 | -79.63934 | 573 ft | 24 kts | 55° |
| 2026-05-05 21:11 | 43.68945 | -79.63778 | 572 ft | 22 kts | 44° |
| 2026-05-05 21:11 | 43.69024 | -79.63617 | 568 ft | 18 kts | 106° |
| 2026-05-05 21:11 | 43.68940 | -79.63495 | 567 ft | 16 kts | 136° |
| 2026-05-05 21:12 | 43.68862 | -79.63393 | 565 ft | 15 kts | 136° |
| 2026-05-05 21:12 | 43.68784 | -79.63290 | 562 ft | 15 kts | 135° |
| 2026-05-05 21:12 | 43.68710 | -79.63193 | 562 ft | 14 kts | 136° |
| 2026-05-05 21:12 | 43.68642 | -79.63082 | 568 ft | 17 kts | 96° |
| 2026-05-05 21:13 | 43.68716 | -79.62993 | 566 ft | 15 kts | 8° |
| 2026-05-05 21:13 | 43.68803 | -79.62914 | 566 ft | 16 kts | 47° |
| 2026-05-05 21:13 | 43.68863 | -79.62799 | 560 ft | 13 kts | 94° |
| 2026-05-05 21:13 | 43.68808 | -79.62708 | 560 ft | 9 kts | 133° |
| 2026-05-05 21:14 | 43.68802 | -79.62699 | 566 ft | 4 kts | 133° |
| 2026-05-05 21:14 | 43.68799 | -79.62694 | 567 ft | 0 kts | 133° |